sensor_id;sensor_type;location;lat;lon;timestamp;temperature;humidity
78448;SHT31;67742;51.972;5.682;2023-05-07T00:00:21;18.4;66.0
78448;SHT31;67742;51.972;5.682;2023-05-07T00:02:49;18.4;66.2
78448;SHT31;67742;51.972;5.682;2023-05-07T00:05:18;18.4;66.1
78448;SHT31;67742;51.972;5.682;2023-05-07T00:07:46;18.4;66.0
78448;SHT31;67742;51.972;5.682;2023-05-07T00:10:16;18.4;65.9
78448;SHT31;67742;51.972;5.682;2023-05-07T00:12:45;18.4;65.8
78448;SHT31;67742;51.972;5.682;2023-05-07T00:15:14;18.4;65.5
78448;SHT31;67742;51.972;5.682;2023-05-07T00:17:42;18.4;65.7
78448;SHT31;67742;51.972;5.682;2023-05-07T00:20:12;18.4;65.7
78448;SHT31;67742;51.972;5.682;2023-05-07T00:22:41;18.4;65.3
78448;SHT31;67742;51.972;5.682;2023-05-07T00:25:11;18.4;65.4
78448;SHT31;67742;51.972;5.682;2023-05-07T00:27:40;18.4;65.3
78448;SHT31;67742;51.972;5.682;2023-05-07T00:30:09;18.4;65.4
78448;SHT31;67742;51.972;5.682;2023-05-07T00:32:38;18.3;65.3
78448;SHT31;67742;51.972;5.682;2023-05-07T00:35:10;18.3;65.2
78448;SHT31;67742;51.972;5.682;2023-05-07T00:37:39;18.3;65.2
78448;SHT31;67742;51.972;5.682;2023-05-07T00:40:08;18.3;65.2
78448;SHT31;67742;51.972;5.682;2023-05-07T00:42:37;18.3;65.1
78448;SHT31;67742;51.972;5.682;2023-05-07T00:45:07;18.3;65.2
78448;SHT31;67742;51.972;5.682;2023-05-07T00:47:37;18.3;65.3
78448;SHT31;67742;51.972;5.682;2023-05-07T00:50:07;18.2;65.3
78448;SHT31;67742;51.972;5.682;2023-05-07T00:52:39;18.2;65.5
78448;SHT31;67742;51.972;5.682;2023-05-07T00:55:09;18.2;65.6
78448;SHT31;67742;51.972;5.682;2023-05-07T00:57:40;18.2;65.7
78448;SHT31;67742;51.972;5.682;2023-05-07T01:00:11;18.2;65.7
78448;SHT31;67742;51.972;5.682;2023-05-07T01:02:40;18.1;65.6
78448;SHT31;67742;51.972;5.682;2023-05-07T01:05:12;18.1;65.9
78448;SHT31;67742;51.972;5.682;2023-05-07T01:07:42;18.1;65.7
78448;SHT31;67742;51.972;5.682;2023-05-07T01:10:12;18.1;65.9
78448;SHT31;67742;51.972;5.682;2023-05-07T01:12:43;18.1;65.9
78448;SHT31;67742;51.972;5.682;2023-05-07T01:15:14;18.1;66.3
78448;SHT31;67742;51.972;5.682;2023-05-07T01:17:44;18.1;66.6
78448;SHT31;67742;51.972;5.682;2023-05-07T01:20:13;18.1;66.2
78448;SHT31;67742;51.972;5.682;2023-05-07T01:22:43;18.0;66.3
78448;SHT31;67742;51.972;5.682;2023-05-07T01:25:12;18.0;66.2
78448;SHT31;67742;51.972;5.682;2023-05-07T01:27:42;18.0;66.4
78448;SHT31;67742;51.972;5.682;2023-05-07T01:30:12;18.0;66.3
78448;SHT31;67742;51.972;5.682;2023-05-07T01:32:44;18.0;66.6
78448;SHT31;67742;51.972;5.682;2023-05-07T01:35:20;18.0;66.9
78448;SHT31;67742;51.972;5.682;2023-05-07T01:37:49;18.0;66.9
78448;SHT31;67742;51.972;5.682;2023-05-07T01:40:20;18.0;66.8
78448;SHT31;67742;51.972;5.682;2023-05-07T01:42:50;18.0;66.8
78448;SHT31;67742;51.972;5.682;2023-05-07T01:45:19;18.0;66.9
78448;SHT31;67742;51.972;5.682;2023-05-07T01:47:48;18.0;66.8
78448;SHT31;67742;51.972;5.682;2023-05-07T01:50:19;18.0;66.7
78448;SHT31;67742;51.972;5.682;2023-05-07T01:52:50;18.0;66.4
78448;SHT31;67742;51.972;5.682;2023-05-07T01:55:19;18.0;66.5
78448;SHT31;67742;51.972;5.682;2023-05-07T01:57:48;17.9;66.9
78448;SHT31;67742;51.972;5.682;2023-05-07T02:00:17;17.9;66.9
78448;SHT31;67742;51.972;5.682;2023-05-07T02:02:46;17.9;66.8
78448;SHT31;67742;51.972;5.682;2023-05-07T02:05:15;17.9;66.9
78448;SHT31;67742;51.972;5.682;2023-05-07T02:07:43;17.9;66.6
78448;SHT31;67742;51.972;5.682;2023-05-07T02:10:12;17.9;66.8
78448;SHT31;67742;51.972;5.682;2023-05-07T02:12:40;17.9;66.5
78448;SHT31;67742;51.972;5.682;2023-05-07T02:15:10;17.9;66.8
78448;SHT31;67742;51.972;5.682;2023-05-07T02:18:00;17.9;67.0
78448;SHT31;67742;51.972;5.682;2023-05-07T02:20:31;17.9;66.8
78448;SHT31;67742;51.972;5.682;2023-05-07T02:22:59;17.9;67.1
78448;SHT31;67742;51.972;5.682;2023-05-07T02:25:28;17.9;67.2
78448;SHT31;67742;51.972;5.682;2023-05-07T02:27:57;17.9;67.0
78448;SHT31;67742;51.972;5.682;2023-05-07T02:30:26;17.9;67.0
78448;SHT31;67742;51.972;5.682;2023-05-07T02:32:55;17.9;66.9
78448;SHT31;67742;51.972;5.682;2023-05-07T02:35:24;17.9;67.4
78448;SHT31;67742;51.972;5.682;2023-05-07T02:37:52;17.9;67.1
78448;SHT31;67742;51.972;5.682;2023-05-07T02:40:21;17.9;67.1
78448;SHT31;67742;51.972;5.682;2023-05-07T02:42:49;17.9;67.1
78448;SHT31;67742;51.972;5.682;2023-05-07T02:45:18;17.8;66.9
78448;SHT31;67742;51.972;5.682;2023-05-07T02:47:46;17.8;66.5
78448;SHT31;67742;51.972;5.682;2023-05-07T02:50:15;17.8;66.9
78448;SHT31;67742;51.972;5.682;2023-05-07T02:52:43;17.8;67.0
78448;SHT31;67742;51.972;5.682;2023-05-07T02:55:13;17.8;67.0
78448;SHT31;67742;51.972;5.682;2023-05-07T02:57:42;17.8;66.8
78448;SHT31;67742;51.972;5.682;2023-05-07T03:00:16;17.8;67.3
78448;SHT31;67742;51.972;5.682;2023-05-07T03:02:45;17.8;67.1
78448;SHT31;67742;51.972;5.682;2023-05-07T03:05:14;17.8;66.8
78448;SHT31;67742;51.972;5.682;2023-05-07T03:07:43;17.8;66.8
78448;SHT31;67742;51.972;5.682;2023-05-07T03:10:12;17.8;66.9
78448;SHT31;67742;51.972;5.682;2023-05-07T03:12:41;17.8;67.0
78448;SHT31;67742;51.972;5.682;2023-05-07T03:15:10;17.8;66.9
78448;SHT31;67742;51.972;5.682;2023-05-07T03:17:39;17.8;66.5
78448;SHT31;67742;51.972;5.682;2023-05-07T03:20:09;17.8;66.6
78448;SHT31;67742;51.972;5.682;2023-05-07T03:22:39;17.8;66.7
78448;SHT31;67742;51.972;5.682;2023-05-07T03:25:10;17.8;66.9
78448;SHT31;67742;51.972;5.682;2023-05-07T03:27:40;17.8;66.7
78448;SHT31;67742;51.972;5.682;2023-05-07T03:30:14;17.7;66.7
78448;SHT31;67742;51.972;5.682;2023-05-07T03:32:42;17.7;67.1
78448;SHT31;67742;51.972;5.682;2023-05-07T03:35:11;17.7;67.0
78448;SHT31;67742;51.972;5.682;2023-05-07T03:37:40;17.7;67.1
78448;SHT31;67742;51.972;5.682;2023-05-07T03:40:10;17.7;66.9
78448;SHT31;67742;51.972;5.682;2023-05-07T03:42:39;17.7;67.0
78448;SHT31;67742;51.972;5.682;2023-05-07T03:45:09;17.7;67.1
78448;SHT31;67742;51.972;5.682;2023-05-07T03:47:37;17.7;67.1
78448;SHT31;67742;51.972;5.682;2023-05-07T03:50:07;17.7;67.1
78448;SHT31;67742;51.972;5.682;2023-05-07T03:52:36;17.7;67.2
78448;SHT31;67742;51.972;5.682;2023-05-07T03:55:05;17.7;67.2
78448;SHT31;67742;51.972;5.682;2023-05-07T03:57:34;17.7;67.1
78448;SHT31;67742;51.972;5.682;2023-05-07T04:00:03;17.7;67.6
78448;SHT31;67742;51.972;5.682;2023-05-07T04:02:33;17.7;67.0
78448;SHT31;67742;51.972;5.682;2023-05-07T04:05:02;17.6;67.7
78448;SHT31;67742;51.972;5.682;2023-05-07T04:07:30;17.6;67.3
78448;SHT31;67742;51.972;5.682;2023-05-07T04:09:59;17.6;67.2
78448;SHT31;67742;51.972;5.682;2023-05-07T04:12:27;17.6;67.3
78448;SHT31;67742;51.972;5.682;2023-05-07T04:14:55;17.6;67.2
78448;SHT31;67742;51.972;5.682;2023-05-07T04:17:24;17.6;67.5
78448;SHT31;67742;51.972;5.682;2023-05-07T04:19:52;17.6;67.7
78448;SHT31;67742;51.972;5.682;2023-05-07T04:22:21;17.6;67.6
78448;SHT31;67742;51.972;5.682;2023-05-07T04:24:49;17.6;67.9
78448;SHT31;67742;51.972;5.682;2023-05-07T04:27:19;17.6;67.6
78448;SHT31;67742;51.972;5.682;2023-05-07T04:29:48;17.6;67.5
78448;SHT31;67742;51.972;5.682;2023-05-07T04:32:18;17.6;68.1
78448;SHT31;67742;51.972;5.682;2023-05-07T04:34:46;17.6;68.0
78448;SHT31;67742;51.972;5.682;2023-05-07T04:37:14;17.6;68.2
78448;SHT31;67742;51.972;5.682;2023-05-07T04:39:43;17.6;68.4
78448;SHT31;67742;51.972;5.682;2023-05-07T04:42:14;17.6;68.4
78448;SHT31;67742;51.972;5.682;2023-05-07T04:44:43;17.6;68.5
78448;SHT31;67742;51.972;5.682;2023-05-07T04:47:12;17.6;68.5
78448;SHT31;67742;51.972;5.682;2023-05-07T04:49:41;17.6;68.2
78448;SHT31;67742;51.972;5.682;2023-05-07T04:52:09;17.6;68.6
78448;SHT31;67742;51.972;5.682;2023-05-07T04:54:37;17.6;68.2
78448;SHT31;67742;51.972;5.682;2023-05-07T04:57:06;17.6;67.6
78448;SHT31;67742;51.972;5.682;2023-05-07T04:59:34;17.6;68.1
78448;SHT31;67742;51.972;5.682;2023-05-07T05:02:03;17.6;68.2
78448;SHT31;67742;51.972;5.682;2023-05-07T05:04:31;17.6;68.4
78448;SHT31;67742;51.972;5.682;2023-05-07T05:07:00;17.6;68.0
78448;SHT31;67742;51.972;5.682;2023-05-07T05:09:30;17.6;69.0
78448;SHT31;67742;51.972;5.682;2023-05-07T05:11:59;17.6;68.8
78448;SHT31;67742;51.972;5.682;2023-05-07T05:14:28;17.6;68.5
78448;SHT31;67742;51.972;5.682;2023-05-07T05:16:56;17.6;69.3
78448;SHT31;67742;51.972;5.682;2023-05-07T05:19:25;17.6;69.0
78448;SHT31;67742;51.972;5.682;2023-05-07T05:21:53;17.6;69.2
78448;SHT31;67742;51.972;5.682;2023-05-07T05:24:22;17.6;68.9
78448;SHT31;67742;51.972;5.682;2023-05-07T05:26:53;17.6;69.1
78448;SHT31;67742;51.972;5.682;2023-05-07T05:29:21;17.6;69.2
78448;SHT31;67742;51.972;5.682;2023-05-07T05:31:50;17.6;69.7
78448;SHT31;67742;51.972;5.682;2023-05-07T05:34:18;17.6;69.6
78448;SHT31;67742;51.972;5.682;2023-05-07T05:36:50;17.6;70.0
78448;SHT31;67742;51.972;5.682;2023-05-07T05:39:19;17.6;69.6
78448;SHT31;67742;51.972;5.682;2023-05-07T05:41:47;17.7;69.7
78448;SHT31;67742;51.972;5.682;2023-05-07T05:44:16;17.7;70.2
78448;SHT31;67742;51.972;5.682;2023-05-07T05:46:44;17.7;69.6
78448;SHT31;67742;51.972;5.682;2023-05-07T05:49:13;17.7;69.8
78448;SHT31;67742;51.972;5.682;2023-05-07T05:51:42;17.7;70.2
78448;SHT31;67742;51.972;5.682;2023-05-07T05:54:11;17.7;69.7
78448;SHT31;67742;51.972;5.682;2023-05-07T05:56:39;17.7;69.9
78448;SHT31;67742;51.972;5.682;2023-05-07T05:59:08;17.7;69.1
78448;SHT31;67742;51.972;5.682;2023-05-07T06:01:37;17.7;69.9
78448;SHT31;67742;51.972;5.682;2023-05-07T06:04:05;17.8;69.4
78448;SHT31;67742;51.972;5.682;2023-05-07T06:06:34;17.8;68.9
78448;SHT31;67742;51.972;5.682;2023-05-07T06:09:03;17.8;69.5
78448;SHT31;67742;51.972;5.682;2023-05-07T06:11:32;17.8;69.3
78448;SHT31;67742;51.972;5.682;2023-05-07T06:14:00;17.8;69.4
78448;SHT31;67742;51.972;5.682;2023-05-07T06:16:29;17.8;69.6
78448;SHT31;67742;51.972;5.682;2023-05-07T06:18:57;17.9;69.5
78448;SHT31;67742;51.972;5.682;2023-05-07T06:21:26;17.9;70.1
78448;SHT31;67742;51.972;5.682;2023-05-07T06:23:54;17.9;70.5
78448;SHT31;67742;51.972;5.682;2023-05-07T06:26:23;17.9;69.8
78448;SHT31;67742;51.972;5.682;2023-05-07T06:28:51;17.9;70.5
78448;SHT31;67742;51.972;5.682;2023-05-07T06:31:20;18.0;69.7
78448;SHT31;67742;51.972;5.682;2023-05-07T06:33:50;18.0;70.1
78448;SHT31;67742;51.972;5.682;2023-05-07T06:36:18;18.0;69.7
78448;SHT31;67742;51.972;5.682;2023-05-07T06:38:48;18.0;69.9
78448;SHT31;67742;51.972;5.682;2023-05-07T06:41:17;18.0;69.1
78448;SHT31;67742;51.972;5.682;2023-05-07T06:43:45;18.1;69.6
78448;SHT31;67742;51.972;5.682;2023-05-07T06:46:13;18.1;70.2
78448;SHT31;67742;51.972;5.682;2023-05-07T06:48:42;18.1;69.5
78448;SHT31;67742;51.972;5.682;2023-05-07T06:51:10;18.1;70.2
78448;SHT31;67742;51.972;5.682;2023-05-07T06:53:39;18.2;69.9
78448;SHT31;67742;51.972;5.682;2023-05-07T06:56:07;18.2;69.9
78448;SHT31;67742;51.972;5.682;2023-05-07T06:58:37;18.2;69.7
78448;SHT31;67742;51.972;5.682;2023-05-07T07:01:05;18.3;69.8
78448;SHT31;67742;51.972;5.682;2023-05-07T07:03:34;18.3;69.9
78448;SHT31;67742;51.972;5.682;2023-05-07T07:06:03;18.3;69.6
78448;SHT31;67742;51.972;5.682;2023-05-07T07:08:32;18.4;69.3
78448;SHT31;67742;51.972;5.682;2023-05-07T07:11:00;18.4;68.9
78448;SHT31;67742;51.972;5.682;2023-05-07T07:13:31;18.4;69.0
78448;SHT31;67742;51.972;5.682;2023-05-07T07:15:59;18.5;68.8
78448;SHT31;67742;51.972;5.682;2023-05-07T07:18:28;18.5;68.9
78448;SHT31;67742;51.972;5.682;2023-05-07T07:20:57;18.5;69.6
78448;SHT31;67742;51.972;5.682;2023-05-07T07:23:26;18.6;69.5
78448;SHT31;67742;51.972;5.682;2023-05-07T07:25:54;18.6;68.7
78448;SHT31;67742;51.972;5.682;2023-05-07T07:28:24;18.6;69.1
78448;SHT31;67742;51.972;5.682;2023-05-07T07:30:53;18.7;68.9
78448;SHT31;67742;51.972;5.682;2023-05-07T07:33:21;18.7;68.7
78448;SHT31;67742;51.972;5.682;2023-05-07T07:35:50;18.7;69.2
78448;SHT31;67742;51.972;5.682;2023-05-07T07:38:18;18.8;69.1
78448;SHT31;67742;51.972;5.682;2023-05-07T07:40:47;18.8;69.3
78448;SHT31;67742;51.972;5.682;2023-05-07T07:43:16;18.8;69.2
78448;SHT31;67742;51.972;5.682;2023-05-07T07:45:44;18.9;69.8
78448;SHT31;67742;51.972;5.682;2023-05-07T07:48:13;18.9;69.0
78448;SHT31;67742;51.972;5.682;2023-05-07T07:50:41;18.9;68.8
78448;SHT31;67742;51.972;5.682;2023-05-07T07:53:10;19.0;69.0
78448;SHT31;67742;51.972;5.682;2023-05-07T07:55:40;19.0;69.1
78448;SHT31;67742;51.972;5.682;2023-05-07T07:58:10;19.0;69.5
78448;SHT31;67742;51.972;5.682;2023-05-07T08:00:39;19.0;69.4
78448;SHT31;67742;51.972;5.682;2023-05-07T08:03:09;19.0;69.1
78448;SHT31;67742;51.972;5.682;2023-05-07T08:05:37;19.1;69.6
78448;SHT31;67742;51.972;5.682;2023-05-07T08:08:06;19.1;68.6
78448;SHT31;67742;51.972;5.682;2023-05-07T08:10:35;19.1;69.5
78448;SHT31;67742;51.972;5.682;2023-05-07T08:13:05;19.2;69.9
78448;SHT31;67742;51.972;5.682;2023-05-07T08:15:34;19.2;70.0
78448;SHT31;67742;51.972;5.682;2023-05-07T08:18:03;19.2;69.7
78448;SHT31;67742;51.972;5.682;2023-05-07T08:20:34;19.3;69.0
78448;SHT31;67742;51.972;5.682;2023-05-07T08:23:05;19.3;68.8
78448;SHT31;67742;51.972;5.682;2023-05-07T08:25:35;19.4;68.5
78448;SHT31;67742;51.972;5.682;2023-05-07T08:28:04;19.4;67.1
78448;SHT31;67742;51.972;5.682;2023-05-07T08:30:34;19.5;68.0
78448;SHT31;67742;51.972;5.682;2023-05-07T08:33:02;19.5;66.8
78448;SHT31;67742;51.972;5.682;2023-05-07T08:35:31;19.5;66.7
78448;SHT31;67742;51.972;5.682;2023-05-07T08:38:01;19.5;67.3
78448;SHT31;67742;51.972;5.682;2023-05-07T08:40:37;19.5;67.3
78448;SHT31;67742;51.972;5.682;2023-05-07T08:43:07;19.6;67.4
78448;SHT31;67742;51.972;5.682;2023-05-07T08:45:39;19.6;67.8
78448;SHT31;67742;51.972;5.682;2023-05-07T08:48:16;19.6;68.2
78448;SHT31;67742;51.972;5.682;2023-05-07T08:50:45;19.7;68.1
78448;SHT31;67742;51.972;5.682;2023-05-07T08:53:16;19.7;67.8
78448;SHT31;67742;51.972;5.682;2023-05-07T08:55:45;19.8;66.9
78448;SHT31;67742;51.972;5.682;2023-05-07T08:58:14;19.8;67.8
78448;SHT31;67742;51.972;5.682;2023-05-07T09:00:42;19.9;67.7
78448;SHT31;67742;51.972;5.682;2023-05-07T09:03:11;19.9;66.0
78448;SHT31;67742;51.972;5.682;2023-05-07T09:05:40;19.9;65.7
78448;SHT31;67742;51.972;5.682;2023-05-07T09:08:13;20.0;66.7
78448;SHT31;67742;51.972;5.682;2023-05-07T09:10:43;20.0;66.6
78448;SHT31;67742;51.972;5.682;2023-05-07T09:13:12;20.1;66.1
78448;SHT31;67742;51.972;5.682;2023-05-07T09:15:41;20.1;65.6
78448;SHT31;67742;51.972;5.682;2023-05-07T09:18:09;20.1;66.2
78448;SHT31;67742;51.972;5.682;2023-05-07T09:20:38;20.2;64.4
78448;SHT31;67742;51.972;5.682;2023-05-07T09:23:08;20.2;66.9
78448;SHT31;67742;51.972;5.682;2023-05-07T09:25:37;20.3;64.7
78448;SHT31;67742;51.972;5.682;2023-05-07T09:28:06;20.3;65.2
78448;SHT31;67742;51.972;5.682;2023-05-07T09:30:36;20.4;63.2
78448;SHT31;67742;51.972;5.682;2023-05-07T09:33:04;20.4;63.7
78448;SHT31;67742;51.972;5.682;2023-05-07T09:35:33;20.5;63.8
78448;SHT31;67742;51.972;5.682;2023-05-07T09:38:02;20.5;63.9
78448;SHT31;67742;51.972;5.682;2023-05-07T09:40:31;20.5;63.5
78448;SHT31;67742;51.972;5.682;2023-05-07T09:43:11;20.6;64.1
78448;SHT31;67742;51.972;5.682;2023-05-07T09:45:41;20.7;64.3
78448;SHT31;67742;51.972;5.682;2023-05-07T09:48:12;20.7;63.7
78448;SHT31;67742;51.972;5.682;2023-05-07T09:50:49;20.8;64.0
78448;SHT31;67742;51.972;5.682;2023-05-07T09:53:18;20.9;63.6
78448;SHT31;67742;51.972;5.682;2023-05-07T09:55:49;21.0;63.3
78448;SHT31;67742;51.972;5.682;2023-05-07T09:58:20;21.0;63.9
78448;SHT31;67742;51.972;5.682;2023-05-07T10:00:50;21.1;64.3
78448;SHT31;67742;51.972;5.682;2023-05-07T10:03:21;21.2;63.1
78448;SHT31;67742;51.972;5.682;2023-05-07T10:05:51;21.3;63.0
78448;SHT31;67742;51.972;5.682;2023-05-07T10:08:22;21.3;62.1
78448;SHT31;67742;51.972;5.682;2023-05-07T10:10:51;21.4;62.0
78448;SHT31;67742;51.972;5.682;2023-05-07T10:13:21;21.5;61.6
78448;SHT31;67742;51.972;5.682;2023-05-07T10:15:50;21.5;60.3
78448;SHT31;67742;51.972;5.682;2023-05-07T10:18:20;21.6;61.1
78448;SHT31;67742;51.972;5.682;2023-05-07T10:21:04;21.6;60.5
78448;SHT31;67742;51.972;5.682;2023-05-07T10:23:35;21.7;59.5
78448;SHT31;67742;51.972;5.682;2023-05-07T10:26:07;21.7;60.2
78448;SHT31;67742;51.972;5.682;2023-05-07T10:28:39;21.8;60.0
78448;SHT31;67742;51.972;5.682;2023-05-07T10:31:23;21.8;60.2
78448;SHT31;67742;51.972;5.682;2023-05-07T10:33:55;21.8;60.1
78448;SHT31;67742;51.972;5.682;2023-05-07T10:36:25;21.9;59.0
78448;SHT31;67742;51.972;5.682;2023-05-07T10:38:55;21.9;59.3
78448;SHT31;67742;51.972;5.682;2023-05-07T10:41:24;21.9;58.9
78448;SHT31;67742;51.972;5.682;2023-05-07T10:43:52;21.9;59.1
78448;SHT31;67742;51.972;5.682;2023-05-07T10:46:22;21.9;59.6
78448;SHT31;67742;51.972;5.682;2023-05-07T10:49:09;22.0;58.6
78448;SHT31;67742;51.972;5.682;2023-05-07T10:51:40;22.0;59.8
78448;SHT31;67742;51.972;5.682;2023-05-07T10:54:22;22.0;58.6
78448;SHT31;67742;51.972;5.682;2023-05-07T10:56:54;22.0;58.4
78448;SHT31;67742;51.972;5.682;2023-05-07T10:59:38;22.1;59.7
78448;SHT31;67742;51.972;5.682;2023-05-07T11:02:12;22.1;59.1
78448;SHT31;67742;51.972;5.682;2023-05-07T11:04:43;22.2;59.6
78448;SHT31;67742;51.972;5.682;2023-05-07T11:07:30;22.2;58.8
78448;SHT31;67742;51.972;5.682;2023-05-07T11:10:03;22.3;58.1
78448;SHT31;67742;51.972;5.682;2023-05-07T11:14:50;22.3;57.9
78448;SHT31;67742;51.972;5.682;2023-05-07T11:17:20;22.4;58.3
78448;SHT31;67742;51.972;5.682;2023-05-07T11:19:50;22.5;59.0
78448;SHT31;67742;51.972;5.682;2023-05-07T11:22:38;22.5;57.8
78448;SHT31;67742;51.972;5.682;2023-05-07T11:25:08;22.6;58.2
78448;SHT31;67742;51.972;5.682;2023-05-07T11:27:37;22.6;55.6
78448;SHT31;67742;51.972;5.682;2023-05-07T11:30:08;22.7;57.6
78448;SHT31;67742;51.972;5.682;2023-05-07T11:32:39;22.8;57.6
78448;SHT31;67742;51.972;5.682;2023-05-07T11:35:09;22.8;57.9
78448;SHT31;67742;51.972;5.682;2023-05-07T11:37:40;22.9;57.2
78448;SHT31;67742;51.972;5.682;2023-05-07T11:40:10;23.0;58.0
78448;SHT31;67742;51.972;5.682;2023-05-07T11:42:40;23.0;57.6
78448;SHT31;67742;51.972;5.682;2023-05-07T11:45:10;23.1;58.2
78448;SHT31;67742;51.972;5.682;2023-05-07T11:47:43;23.2;58.0
78448;SHT31;67742;51.972;5.682;2023-05-07T11:50:11;23.2;58.6
78448;SHT31;67742;51.972;5.682;2023-05-07T11:52:40;23.3;58.1
78448;SHT31;67742;51.972;5.682;2023-05-07T11:55:17;23.4;56.9
78448;SHT31;67742;51.972;5.682;2023-05-07T11:57:47;23.4;57.8
78448;SHT31;67742;51.972;5.682;2023-05-07T12:00:17;23.5;56.1
78448;SHT31;67742;51.972;5.682;2023-05-07T12:02:46;23.5;54.8
78448;SHT31;67742;51.972;5.682;2023-05-07T12:05:15;23.5;55.5
78448;SHT31;67742;51.972;5.682;2023-05-07T12:07:44;23.6;55.1
78448;SHT31;67742;51.972;5.682;2023-05-07T12:10:14;23.6;56.1
78448;SHT31;67742;51.972;5.682;2023-05-07T12:12:46;23.6;55.9
78448;SHT31;67742;51.972;5.682;2023-05-07T12:15:17;23.7;53.8
78448;SHT31;67742;51.972;5.682;2023-05-07T12:17:51;23.7;55.3
78448;SHT31;67742;51.972;5.682;2023-05-07T12:20:20;23.7;55.1
78448;SHT31;67742;51.972;5.682;2023-05-07T12:22:50;23.7;55.5
78448;SHT31;67742;51.972;5.682;2023-05-07T12:25:20;23.7;54.8
78448;SHT31;67742;51.972;5.682;2023-05-07T12:27:53;23.8;54.4
78448;SHT31;67742;51.972;5.682;2023-05-07T12:30:24;23.8;54.3
78448;SHT31;67742;51.972;5.682;2023-05-07T12:32:54;23.8;54.8
78448;SHT31;67742;51.972;5.682;2023-05-07T12:35:30;23.9;54.7
78448;SHT31;67742;51.972;5.682;2023-05-07T12:37:59;23.9;54.8
78448;SHT31;67742;51.972;5.682;2023-05-07T12:40:38;24.0;54.7
78448;SHT31;67742;51.972;5.682;2023-05-07T12:43:09;24.0;54.4
78448;SHT31;67742;51.972;5.682;2023-05-07T12:45:44;24.1;54.2
78448;SHT31;67742;51.972;5.682;2023-05-07T12:48:13;24.2;53.6
78448;SHT31;67742;51.972;5.682;2023-05-07T12:50:42;24.2;55.3
78448;SHT31;67742;51.972;5.682;2023-05-07T12:53:12;24.3;53.8
78448;SHT31;67742;51.972;5.682;2023-05-07T12:55:46;24.3;53.6
78448;SHT31;67742;51.972;5.682;2023-05-07T12:58:20;24.4;53.7
78448;SHT31;67742;51.972;5.682;2023-05-07T13:00:50;24.5;53.5
78448;SHT31;67742;51.972;5.682;2023-05-07T13:03:24;24.5;52.7
78448;SHT31;67742;51.972;5.682;2023-05-07T13:05:55;24.5;52.8
78448;SHT31;67742;51.972;5.682;2023-05-07T13:08:32;24.6;53.0
78448;SHT31;67742;51.972;5.682;2023-05-07T13:11:04;24.6;52.3
78448;SHT31;67742;51.972;5.682;2023-05-07T13:13:34;24.6;52.7
78448;SHT31;67742;51.972;5.682;2023-05-07T13:16:04;24.7;53.0
78448;SHT31;67742;51.972;5.682;2023-05-07T13:18:33;24.7;53.1
78448;SHT31;67742;51.972;5.682;2023-05-07T13:21:03;24.7;52.7
78448;SHT31;67742;51.972;5.682;2023-05-07T13:23:32;24.8;51.8
78448;SHT31;67742;51.972;5.682;2023-05-07T13:26:00;24.8;51.4
78448;SHT31;67742;51.972;5.682;2023-05-07T13:28:28;24.8;51.7
78448;SHT31;67742;51.972;5.682;2023-05-07T13:30:57;24.8;50.6
78448;SHT31;67742;51.972;5.682;2023-05-07T13:33:25;24.8;50.8
78448;SHT31;67742;51.972;5.682;2023-05-07T13:35:54;24.9;50.5
78448;SHT31;67742;51.972;5.682;2023-05-07T13:38:23;24.9;52.3
78448;SHT31;67742;51.972;5.682;2023-05-07T13:40:51;24.9;51.4
78448;SHT31;67742;51.972;5.682;2023-05-07T13:43:20;24.9;51.9
78448;SHT31;67742;51.972;5.682;2023-05-07T13:45:49;24.9;50.3
78448;SHT31;67742;51.972;5.682;2023-05-07T13:48:17;25.0;52.2
78448;SHT31;67742;51.972;5.682;2023-05-07T13:50:45;25.0;52.4
78448;SHT31;67742;51.972;5.682;2023-05-07T13:53:14;25.0;48.3
78448;SHT31;67742;51.972;5.682;2023-05-07T13:55:45;25.1;48.5
78448;SHT31;67742;51.972;5.682;2023-05-07T13:58:13;25.1;51.2
78448;SHT31;67742;51.972;5.682;2023-05-07T14:00:42;25.2;51.2
78448;SHT31;67742;51.972;5.682;2023-05-07T14:03:12;25.2;51.5
78448;SHT31;67742;51.972;5.682;2023-05-07T14:05:41;25.2;51.5
78448;SHT31;67742;51.972;5.682;2023-05-07T14:08:11;25.3;49.8
78448;SHT31;67742;51.972;5.682;2023-05-07T14:10:42;25.3;49.5
78448;SHT31;67742;51.972;5.682;2023-05-07T14:13:10;25.3;49.1
78448;SHT31;67742;51.972;5.682;2023-05-07T14:15:39;25.3;49.5
78448;SHT31;67742;51.972;5.682;2023-05-07T14:18:12;25.3;50.6
78448;SHT31;67742;51.972;5.682;2023-05-07T14:20:41;25.3;49.6
78448;SHT31;67742;51.972;5.682;2023-05-07T14:23:12;25.4;50.0
78448;SHT31;67742;51.972;5.682;2023-05-07T14:25:41;25.3;50.8
78448;SHT31;67742;51.972;5.682;2023-05-07T14:28:10;25.3;51.1
78448;SHT31;67742;51.972;5.682;2023-05-07T14:30:39;25.3;51.4
78448;SHT31;67742;51.972;5.682;2023-05-07T14:33:07;25.3;49.9
78448;SHT31;67742;51.972;5.682;2023-05-07T14:35:36;25.3;50.2
78448;SHT31;67742;51.972;5.682;2023-05-07T14:38:04;25.3;49.9
78448;SHT31;67742;51.972;5.682;2023-05-07T14:40:33;25.3;49.3
78448;SHT31;67742;51.972;5.682;2023-05-07T14:43:03;25.3;50.2
78448;SHT31;67742;51.972;5.682;2023-05-07T14:45:31;25.3;50.5
78448;SHT31;67742;51.972;5.682;2023-05-07T14:48:00;25.3;49.9
78448;SHT31;67742;51.972;5.682;2023-05-07T14:50:28;25.3;51.0
78448;SHT31;67742;51.972;5.682;2023-05-07T14:52:56;25.3;50.7
78448;SHT31;67742;51.972;5.682;2023-05-07T14:55:25;25.3;50.2
78448;SHT31;67742;51.972;5.682;2023-05-07T14:57:53;25.3;49.6
78448;SHT31;67742;51.972;5.682;2023-05-07T15:00:22;25.2;48.7
78448;SHT31;67742;51.972;5.682;2023-05-07T15:02:50;25.2;49.5
78448;SHT31;67742;51.972;5.682;2023-05-07T15:05:19;25.2;49.7
78448;SHT31;67742;51.972;5.682;2023-05-07T15:07:47;25.2;49.3
78448;SHT31;67742;51.972;5.682;2023-05-07T15:10:16;25.2;49.8
78448;SHT31;67742;51.972;5.682;2023-05-07T15:12:44;25.1;50.5
78448;SHT31;67742;51.972;5.682;2023-05-07T15:15:13;25.1;50.8
78448;SHT31;67742;51.972;5.682;2023-05-07T15:17:41;25.1;50.6
78448;SHT31;67742;51.972;5.682;2023-05-07T15:20:12;25.1;49.1
78448;SHT31;67742;51.972;5.682;2023-05-07T15:22:40;25.0;48.5
78448;SHT31;67742;51.972;5.682;2023-05-07T15:25:10;24.9;49.4
78448;SHT31;67742;51.972;5.682;2023-05-07T15:27:38;24.9;48.5
78448;SHT31;67742;51.972;5.682;2023-05-07T15:30:08;24.8;49.4
78448;SHT31;67742;51.972;5.682;2023-05-07T15:32:37;24.7;48.7
78448;SHT31;67742;51.972;5.682;2023-05-07T15:35:08;24.5;48.8
78448;SHT31;67742;51.972;5.682;2023-05-07T15:37:37;24.4;48.3
78448;SHT31;67742;51.972;5.682;2023-05-07T15:40:07;24.3;48.1
78448;SHT31;67742;51.972;5.682;2023-05-07T15:42:36;24.2;48.6
78448;SHT31;67742;51.972;5.682;2023-05-07T15:45:06;24.0;49.3
78448;SHT31;67742;51.972;5.682;2023-05-07T15:47:36;23.8;50.9
78448;SHT31;67742;51.972;5.682;2023-05-07T15:50:06;23.7;51.8
78448;SHT31;67742;51.972;5.682;2023-05-07T15:52:36;23.5;52.3
78448;SHT31;67742;51.972;5.682;2023-05-07T15:55:06;23.4;53.1
78448;SHT31;67742;51.972;5.682;2023-05-07T15:57:35;23.3;53.3
78448;SHT31;67742;51.972;5.682;2023-05-07T16:00:04;23.2;53.8
78448;SHT31;67742;51.972;5.682;2023-05-07T16:02:35;23.0;54.3
78448;SHT31;67742;51.972;5.682;2023-05-07T16:05:04;23.0;54.6
78448;SHT31;67742;51.972;5.682;2023-05-07T16:07:36;22.9;54.8
78448;SHT31;67742;51.972;5.682;2023-05-07T16:10:05;22.8;55.0
78448;SHT31;67742;51.972;5.682;2023-05-07T16:12:34;22.7;55.0
78448;SHT31;67742;51.972;5.682;2023-05-07T16:15:03;22.5;55.7
78448;SHT31;67742;51.972;5.682;2023-05-07T16:17:33;22.4;56.1
78448;SHT31;67742;51.972;5.682;2023-05-07T16:20:04;22.3;56.7